PPDSL SDIM-SBUL
Flight info
| Callsign | PPDSL |
|---|---|
| Flight time | 1h 57m |
| Altitude | 4500 |
| Route | REA 2411S04647W/N0180F060 IFR DCT SCB/N0180F090 RPR URB DCT |
| Aircraft | C208/L-SDFGR/C |
Departure
| Time | 2026-05-06 16:45 |
|---|---|
| Airport | Itanhaém Airport (SDIM) |
Arrival
| Time | 2026-05-06 18:42 |
|---|---|
| Airport | Ten. Cel. Aviador César Bombonato Airport (SBUL) |
| Time | Latitude | Longitude | Altitude | Speed | Heading |
|---|---|---|---|---|---|
| 2026-05-06 16:45 | -24.06808 | -46.83989 | 4318 ft | 123 kts | 345° |
| 2026-05-06 16:45 | -24.06143 | -46.84173 | 4584 ft | 124 kts | 345° |
| 2026-05-06 16:45 | -24.05296 | -46.84408 | 4865 ft | 129 kts | 345° |
| 2026-05-06 16:45 | -24.04412 | -46.84652 | 5152 ft | 131 kts | 345° |
| 2026-05-06 16:46 | -24.03536 | -46.84894 | 5447 ft | 132 kts | 345° |
| 2026-05-06 16:46 | -24.02644 | -46.85142 | 5740 ft | 133 kts | 345° |
| 2026-05-06 16:46 | -24.01747 | -46.85391 | 6040 ft | 133 kts | 345° |
| 2026-05-06 16:46 | -24.00843 | -46.85641 | 6329 ft | 134 kts | 345° |
| 2026-05-06 16:47 | -23.99938 | -46.85892 | 6621 ft | 134 kts | 345° |
| 2026-05-06 16:47 | -23.99031 | -46.86144 | 6893 ft | 135 kts | 345° |
| 2026-05-06 16:47 | -23.98118 | -46.86397 | 7165 ft | 136 kts | 345° |
| 2026-05-06 16:47 | -23.97202 | -46.86651 | 7434 ft | 136 kts | 345° |
| 2026-05-06 16:48 | -23.96282 | -46.86906 | 7696 ft | 137 kts | 345° |
| 2026-05-06 16:48 | -23.95369 | -46.87159 | 7963 ft | 137 kts | 345° |
| 2026-05-06 16:48 | -23.94439 | -46.87416 | 8226 ft | 138 kts | 345° |
| 2026-05-06 16:48 | -23.93504 | -46.87676 | 8486 ft | 139 kts | 345° |
| 2026-05-06 16:49 | -23.92563 | -46.87936 | 8747 ft | 140 kts | 346° |
| 2026-05-06 16:49 | -23.91613 | -46.88199 | 9007 ft | 140 kts | 345° |
| 2026-05-06 16:49 | -23.90645 | -46.88468 | 9153 ft | 150 kts | 346° |
| 2026-05-06 16:49 | -23.89583 | -46.88758 | 9169 ft | 163 kts | 346° |
| 2026-05-06 16:50 | -23.88479 | -46.89058 | 9170 ft | 164 kts | 346° |
| 2026-05-06 16:50 | -23.87367 | -46.89366 | 9167 ft | 165 kts | 346° |
| 2026-05-06 16:50 | -23.86265 | -46.89672 | 9175 ft | 165 kts | 346° |
| 2026-05-06 16:50 | -23.85219 | -46.89963 | 9178 ft | 166 kts | 346° |
| 2026-05-06 16:51 | -23.84098 | -46.90274 | 9178 ft | 166 kts | 346° |
| 2026-05-06 16:51 | -23.82975 | -46.90585 | 9176 ft | 167 kts | 346° |
| 2026-05-06 16:51 | -23.81850 | -46.90895 | 9180 ft | 166 kts | 346° |
| 2026-05-06 16:51 | -23.80728 | -46.91206 | 9179 ft | 166 kts | 346° |
| 2026-05-06 16:52 | -23.79607 | -46.91516 | 9185 ft | 166 kts | 346° |
| 2026-05-06 16:52 | -23.78484 | -46.91827 | 9183 ft | 166 kts | 346° |
| 2026-05-06 16:52 | -23.77359 | -46.92139 | 9190 ft | 167 kts | 346° |
| 2026-05-06 16:52 | -23.76231 | -46.92453 | 9192 ft | 167 kts | 346° |
| 2026-05-06 16:53 | -23.75098 | -46.92764 | 9190 ft | 168 kts | 346° |
| 2026-05-06 16:53 | -23.73967 | -46.93074 | 9189 ft | 167 kts | 346° |
| 2026-05-06 16:53 | -23.72839 | -46.93386 | 9191 ft | 167 kts | 346° |
| 2026-05-06 16:53 | -23.71713 | -46.93697 | 9188 ft | 167 kts | 346° |
| 2026-05-06 16:54 | -23.70587 | -46.94007 | 9187 ft | 166 kts | 346° |
| 2026-05-06 16:54 | -23.69465 | -46.94318 | 9188 ft | 166 kts | 346° |
| 2026-05-06 16:54 | -23.68343 | -46.94627 | 9187 ft | 166 kts | 346° |
| 2026-05-06 16:54 | -23.67222 | -46.94937 | 9188 ft | 166 kts | 346° |
| 2026-05-06 16:55 | -23.66100 | -46.95246 | 9186 ft | 166 kts | 346° |
| 2026-05-06 16:55 | -23.64991 | -46.95554 | 9191 ft | 167 kts | 346° |
| 2026-05-06 16:55 | -23.63860 | -46.95864 | 9187 ft | 168 kts | 346° |
| 2026-05-06 16:55 | -23.62724 | -46.96173 | 9187 ft | 169 kts | 346° |
| 2026-05-06 16:56 | -23.61586 | -46.96487 | 9189 ft | 169 kts | 346° |
| 2026-05-06 16:56 | -23.60445 | -46.96804 | 9183 ft | 169 kts | 346° |
| 2026-05-06 16:56 | -23.59307 | -46.97122 | 9176 ft | 169 kts | 346° |
| 2026-05-06 16:56 | -23.58170 | -46.97435 | 9175 ft | 168 kts | 346° |
| 2026-05-06 16:57 | -23.57031 | -46.97746 | 9171 ft | 169 kts | 346° |
| 2026-05-06 16:57 | -23.55887 | -46.98062 | 9168 ft | 169 kts | 346° |
| 2026-05-06 16:57 | -23.54745 | -46.98376 | 9168 ft | 169 kts | 346° |
| 2026-05-06 16:57 | -23.53602 | -46.98689 | 9173 ft | 171 kts | 346° |
| 2026-05-06 16:58 | -23.52442 | -46.99008 | 9163 ft | 171 kts | 346° |
| 2026-05-06 16:58 | -23.51287 | -46.99325 | 9161 ft | 171 kts | 346° |
| 2026-05-06 16:58 | -23.50133 | -46.99645 | 9154 ft | 170 kts | 346° |
| 2026-05-06 16:58 | -23.48984 | -46.99957 | 9153 ft | 171 kts | 346° |
| 2026-05-06 16:59 | -23.47830 | -47.00281 | 9156 ft | 173 kts | 346° |
| 2026-05-06 16:59 | -23.46670 | -47.00601 | 9148 ft | 171 kts | 347° |
| 2026-05-06 16:59 | -23.45533 | -47.00909 | 9141 ft | 170 kts | 347° |
| 2026-05-06 16:59 | -23.44387 | -47.01228 | 9136 ft | 170 kts | 347° |
| 2026-05-06 17:00 | -23.43239 | -47.01541 | 9136 ft | 170 kts | 346° |
| 2026-05-06 17:00 | -23.42074 | -47.01860 | 9143 ft | 174 kts | 347° |
| 2026-05-06 17:00 | -23.40898 | -47.02181 | 9146 ft | 174 kts | 347° |
| 2026-05-06 17:00 | -23.39712 | -47.02507 | 9145 ft | 176 kts | 347° |
| 2026-05-06 17:01 | -23.38510 | -47.02840 | 9139 ft | 180 kts | 347° |
| 2026-05-06 17:01 | -23.37300 | -47.03171 | 9137 ft | 178 kts | 347° |
| 2026-05-06 17:01 | -23.36105 | -47.03498 | 9140 ft | 178 kts | 347° |
| 2026-05-06 17:01 | -23.34912 | -47.03823 | 9129 ft | 176 kts | 347° |
| 2026-05-06 17:02 | -23.33732 | -47.04152 | 9132 ft | 174 kts | 347° |
| 2026-05-06 17:02 | -23.32554 | -47.04476 | 9137 ft | 174 kts | 347° |
| 2026-05-06 17:02 | -23.31379 | -47.04797 | 9131 ft | 173 kts | 347° |
| 2026-05-06 17:02 | -23.30231 | -47.05112 | 9134 ft | 173 kts | 347° |
| 2026-05-06 17:03 | -23.29058 | -47.05434 | 9139 ft | 174 kts | 347° |
| 2026-05-06 17:03 | -23.27878 | -47.05755 | 9146 ft | 175 kts | 347° |
| 2026-05-06 17:03 | -23.26695 | -47.06082 | 9149 ft | 176 kts | 347° |
| 2026-05-06 17:03 | -23.25507 | -47.06406 | 9154 ft | 175 kts | 347° |
| 2026-05-06 17:04 | -23.24329 | -47.06728 | 9152 ft | 174 kts | 347° |
| 2026-05-06 17:04 | -23.23158 | -47.07052 | 9159 ft | 174 kts | 347° |
| 2026-05-06 17:04 | -23.21983 | -47.07371 | 9157 ft | 173 kts | 347° |
| 2026-05-06 17:04 | -23.20815 | -47.07689 | 9162 ft | 173 kts | 347° |
| 2026-05-06 17:05 | -23.19642 | -47.08014 | 9165 ft | 175 kts | 347° |
| 2026-05-06 17:05 | -23.18456 | -47.08340 | 9177 ft | 176 kts | 347° |
| 2026-05-06 17:05 | -23.17279 | -47.08661 | 9167 ft | 176 kts | 347° |
| 2026-05-06 17:05 | -23.16091 | -47.08983 | 9178 ft | 176 kts | 347° |
| 2026-05-06 17:06 | -23.14907 | -47.09312 | 9179 ft | 175 kts | 346° |
| 2026-05-06 17:06 | -23.13718 | -47.09639 | 9177 ft | 177 kts | 347° |
| 2026-05-06 17:06 | -23.12526 | -47.09961 | 9186 ft | 178 kts | 347° |
| 2026-05-06 17:06 | -23.11332 | -47.10285 | 9187 ft | 175 kts | 347° |
| 2026-05-06 17:07 | -23.10146 | -47.10608 | 9183 ft | 175 kts | 347° |
| 2026-05-06 17:07 | -23.08963 | -47.10935 | 9193 ft | 176 kts | 347° |
| 2026-05-06 17:07 | -23.07773 | -47.11261 | 9185 ft | 176 kts | 347° |
| 2026-05-06 17:07 | -23.06595 | -47.11583 | 9186 ft | 174 kts | 347° |
| 2026-05-06 17:08 | -23.05417 | -47.11906 | 9184 ft | 174 kts | 347° |
| 2026-05-06 17:08 | -23.04245 | -47.12226 | 9183 ft | 173 kts | 347° |
| 2026-05-06 17:08 | -23.03076 | -47.12544 | 9185 ft | 173 kts | 347° |
| 2026-05-06 17:08 | -23.01907 | -47.12864 | 9183 ft | 173 kts | 347° |
| 2026-05-06 17:09 | -23.00737 | -47.13183 | 9186 ft | 174 kts | 347° |
| 2026-05-06 17:09 | -22.99567 | -47.13503 | 9184 ft | 173 kts | 347° |
| 2026-05-06 17:09 | -22.98412 | -47.13824 | 9185 ft | 173 kts | 347° |
| 2026-05-06 17:09 | -22.97240 | -47.14137 | 9191 ft | 174 kts | 348° |
| 2026-05-06 17:10 | -22.96061 | -47.14457 | 9188 ft | 174 kts | 347° |
| 2026-05-06 17:10 | -22.94894 | -47.14776 | 9189 ft | 173 kts | 347° |
| 2026-05-06 17:10 | -22.93729 | -47.15097 | 9186 ft | 173 kts | 347° |
| 2026-05-06 17:10 | -22.92572 | -47.15409 | 9189 ft | 174 kts | 347° |
| 2026-05-06 17:11 | -22.91404 | -47.15728 | 9191 ft | 173 kts | 348° |
| 2026-05-06 17:11 | -22.90236 | -47.16046 | 9184 ft | 173 kts | 347° |
| 2026-05-06 17:11 | -22.89070 | -47.16367 | 9179 ft | 173 kts | 347° |
| 2026-05-06 17:11 | -22.87901 | -47.16686 | 9179 ft | 173 kts | 348° |
| 2026-05-06 17:12 | -22.86731 | -47.17004 | 9177 ft | 173 kts | 348° |
| 2026-05-06 17:12 | -22.85561 | -47.17320 | 9173 ft | 173 kts | 348° |
| 2026-05-06 17:12 | -22.84395 | -47.17637 | 9165 ft | 172 kts | 348° |
| 2026-05-06 17:12 | -22.83236 | -47.17954 | 9168 ft | 172 kts | 348° |
| 2026-05-06 17:13 | -22.82076 | -47.18272 | 9159 ft | 171 kts | 348° |
| 2026-05-06 17:13 | -22.80922 | -47.18582 | 9157 ft | 170 kts | 348° |
| 2026-05-06 17:13 | -22.79768 | -47.18897 | 9155 ft | 172 kts | 348° |
| 2026-05-06 17:13 | -22.78608 | -47.19217 | 9152 ft | 173 kts | 347° |
| 2026-05-06 17:14 | -22.77442 | -47.19535 | 9145 ft | 172 kts | 348° |
| 2026-05-06 17:14 | -22.76300 | -47.19845 | 9141 ft | 171 kts | 348° |
| 2026-05-06 17:14 | -22.75137 | -47.20160 | 9141 ft | 172 kts | 348° |
| 2026-05-06 17:14 | -22.73976 | -47.20476 | 9138 ft | 171 kts | 348° |
| 2026-05-06 17:15 | -22.72816 | -47.20791 | 9135 ft | 172 kts | 348° |
| 2026-05-06 17:15 | -22.71651 | -47.21106 | 9134 ft | 173 kts | 348° |
| 2026-05-06 17:15 | -22.70485 | -47.21420 | 9126 ft | 172 kts | 348° |
| 2026-05-06 17:15 | -22.69341 | -47.21731 | 9130 ft | 172 kts | 348° |
| 2026-05-06 17:16 | -22.68173 | -47.22052 | 9126 ft | 173 kts | 348° |
| 2026-05-06 17:16 | -22.67003 | -47.22373 | 9119 ft | 174 kts | 348° |
| 2026-05-06 17:16 | -22.65829 | -47.22691 | 9121 ft | 174 kts | 348° |
| 2026-05-06 17:16 | -22.64646 | -47.23008 | 9119 ft | 175 kts | 348° |
| 2026-05-06 17:17 | -22.63850 | -47.23225 | 9122 ft | 174 kts | 347° |
| 2026-05-06 17:17 | -22.62691 | -47.23542 | 9112 ft | 173 kts | 348° |
| 2026-05-06 17:17 | -22.61526 | -47.23853 | 9112 ft | 172 kts | 348° |
| 2026-05-06 17:17 | -22.60363 | -47.24170 | 9111 ft | 172 kts | 348° |
| 2026-05-06 17:18 | -22.59200 | -47.24485 | 9109 ft | 172 kts | 348° |
| 2026-05-06 17:18 | -22.58049 | -47.24802 | 9106 ft | 170 kts | 348° |
| 2026-05-06 17:18 | -22.56900 | -47.25117 | 9104 ft | 170 kts | 348° |
| 2026-05-06 17:18 | -22.55752 | -47.25428 | 9106 ft | 170 kts | 348° |
| 2026-05-06 17:19 | -22.54600 | -47.25739 | 9105 ft | 170 kts | 348° |
| 2026-05-06 17:19 | -22.53453 | -47.26047 | 9104 ft | 170 kts | 348° |
| 2026-05-06 17:19 | -22.52306 | -47.26357 | 9106 ft | 171 kts | 348° |
| 2026-05-06 17:19 | -22.51152 | -47.26684 | 9109 ft | 172 kts | 347° |
| 2026-05-06 17:20 | -22.49995 | -47.27020 | 9112 ft | 172 kts | 347° |
| 2026-05-06 17:20 | -22.48851 | -47.27349 | 9110 ft | 172 kts | 347° |
| 2026-05-06 17:20 | -22.47689 | -47.27681 | 9114 ft | 173 kts | 347° |
| 2026-05-06 17:20 | -22.46527 | -47.28013 | 9107 ft | 172 kts | 347° |
| 2026-05-06 17:21 | -22.45375 | -47.28344 | 9108 ft | 171 kts | 347° |
| 2026-05-06 17:21 | -22.44221 | -47.28677 | 9108 ft | 172 kts | 347° |
| 2026-05-06 17:21 | -22.43069 | -47.29005 | 9108 ft | 171 kts | 347° |
| 2026-05-06 17:21 | -22.41920 | -47.29335 | 9108 ft | 171 kts | 347° |
| 2026-05-06 17:22 | -22.40777 | -47.29662 | 9108 ft | 170 kts | 347° |
| 2026-05-06 17:22 | -22.39634 | -47.29990 | 9108 ft | 171 kts | 347° |
| 2026-05-06 17:22 | -22.38487 | -47.30317 | 9107 ft | 170 kts | 347° |
| 2026-05-06 17:22 | -22.37344 | -47.30647 | 9113 ft | 170 kts | 347° |
| 2026-05-06 17:23 | -22.36201 | -47.30975 | 9106 ft | 170 kts | 347° |
| 2026-05-06 17:23 | -22.35060 | -47.31301 | 9109 ft | 169 kts | 347° |
| 2026-05-06 17:23 | -22.33916 | -47.31629 | 9109 ft | 171 kts | 347° |
| 2026-05-06 17:23 | -22.32772 | -47.31958 | 9118 ft | 170 kts | 347° |
| 2026-05-06 17:24 | -22.31639 | -47.32281 | 9125 ft | 171 kts | 347° |
| 2026-05-06 17:24 | -22.30484 | -47.32611 | 9126 ft | 172 kts | 347° |
| 2026-05-06 17:24 | -22.29329 | -47.32940 | 9131 ft | 171 kts | 348° |
| 2026-05-06 17:24 | -22.28173 | -47.33272 | 9129 ft | 172 kts | 347° |
| 2026-05-06 17:25 | -22.27021 | -47.33604 | 9130 ft | 172 kts | 347° |
| 2026-05-06 17:25 | -22.25866 | -47.33933 | 9132 ft | 170 kts | 347° |
| 2026-05-06 17:25 | -22.24722 | -47.34259 | 9144 ft | 170 kts | 348° |
| 2026-05-06 17:25 | -22.23571 | -47.34585 | 9143 ft | 171 kts | 347° |
| 2026-05-06 17:26 | -22.22416 | -47.34921 | 9140 ft | 171 kts | 347° |
| 2026-05-06 17:26 | -22.21273 | -47.35248 | 9142 ft | 169 kts | 348° |
| 2026-05-06 17:26 | -22.20143 | -47.35569 | 9149 ft | 168 kts | 347° |
| 2026-05-06 17:26 | -22.19009 | -47.35894 | 9154 ft | 169 kts | 347° |
| 2026-05-06 17:27 | -22.17872 | -47.36217 | 9156 ft | 169 kts | 347° |
| 2026-05-06 17:27 | -22.16735 | -47.36542 | 9162 ft | 170 kts | 347° |
| 2026-05-06 17:27 | -22.15588 | -47.36869 | 9160 ft | 170 kts | 348° |
| 2026-05-06 17:27 | -22.14445 | -47.37196 | 9170 ft | 170 kts | 347° |
| 2026-05-06 17:28 | -22.13305 | -47.37521 | 9171 ft | 169 kts | 348° |
| 2026-05-06 17:28 | -22.12178 | -47.37843 | 9176 ft | 170 kts | 347° |
| 2026-05-06 17:28 | -22.11029 | -47.38171 | 9181 ft | 171 kts | 347° |
| 2026-05-06 17:28 | -22.09880 | -47.38499 | 9186 ft | 172 kts | 347° |
| 2026-05-06 17:29 | -22.08724 | -47.38828 | 9185 ft | 171 kts | 348° |
| 2026-05-06 17:29 | -22.07570 | -47.39154 | 9189 ft | 172 kts | 348° |
| 2026-05-06 17:29 | -22.06414 | -47.39487 | 9191 ft | 172 kts | 348° |
| 2026-05-06 17:29 | -22.05257 | -47.39816 | 9189 ft | 171 kts | 348° |
| 2026-05-06 17:30 | -22.04109 | -47.40145 | 9192 ft | 170 kts | 348° |
| 2026-05-06 17:30 | -22.02960 | -47.40473 | 9193 ft | 171 kts | 347° |
| 2026-05-06 17:30 | -22.01811 | -47.40801 | 9192 ft | 171 kts | 348° |
| 2026-05-06 17:30 | -22.00657 | -47.41124 | 9192 ft | 172 kts | 348° |
| 2026-05-06 17:31 | -21.99506 | -47.41455 | 9191 ft | 170 kts | 347° |
| 2026-05-06 17:31 | -21.98356 | -47.41786 | 9189 ft | 171 kts | 348° |
| 2026-05-06 17:31 | -21.97204 | -47.42113 | 9193 ft | 171 kts | 348° |
| 2026-05-06 17:31 | -21.96059 | -47.42439 | 9185 ft | 173 kts | 348° |
| 2026-05-06 17:32 | -21.94895 | -47.42764 | 9189 ft | 172 kts | 348° |
| 2026-05-06 17:32 | -21.93743 | -47.43097 | 9184 ft | 170 kts | 348° |
| 2026-05-06 17:32 | -21.92594 | -47.43427 | 9185 ft | 172 kts | 348° |
| 2026-05-06 17:32 | -21.91436 | -47.43755 | 9182 ft | 171 kts | 348° |
| 2026-05-06 17:33 | -21.90288 | -47.44081 | 9177 ft | 170 kts | 348° |
| 2026-05-06 17:33 | -21.89144 | -47.44407 | 9175 ft | 170 kts | 348° |
| 2026-05-06 17:33 | -21.88003 | -47.44731 | 9171 ft | 169 kts | 348° |
| 2026-05-06 17:33 | -21.86864 | -47.45055 | 9168 ft | 169 kts | 348° |
| 2026-05-06 17:34 | -21.85723 | -47.45380 | 9162 ft | 170 kts | 348° |
| 2026-05-06 17:34 | -21.84580 | -47.45704 | 9157 ft | 170 kts | 348° |
| 2026-05-06 17:34 | -21.83435 | -47.46027 | 9156 ft | 170 kts | 348° |
| 2026-05-06 17:34 | -21.82291 | -47.46353 | 9156 ft | 170 kts | 348° |
| 2026-05-06 17:35 | -21.81145 | -47.46681 | 9154 ft | 170 kts | 348° |
| 2026-05-06 17:35 | -21.79998 | -47.47008 | 9152 ft | 171 kts | 348° |
| 2026-05-06 17:35 | -21.78861 | -47.47327 | 9141 ft | 170 kts | 348° |
| 2026-05-06 17:36 | -21.76583 | -47.47976 | 9138 ft | 170 kts | 348° |
| 2026-05-06 17:36 | -21.75441 | -47.48298 | 9140 ft | 169 kts | 348° |
| 2026-05-06 17:36 | -21.74300 | -47.48625 | 9131 ft | 169 kts | 348° |
| 2026-05-06 17:36 | -21.73163 | -47.48948 | 9129 ft | 169 kts | 349° |
| 2026-05-06 17:37 | -21.72033 | -47.49269 | 9119 ft | 167 kts | 348° |
| 2026-05-06 17:37 | -21.70909 | -47.49587 | 9116 ft | 167 kts | 348° |
| 2026-05-06 17:37 | -21.69786 | -47.49904 | 9118 ft | 167 kts | 348° |
| 2026-05-06 17:37 | -21.68651 | -47.50228 | 9113 ft | 169 kts | 349° |
| 2026-05-06 17:38 | -21.67514 | -47.50549 | 9106 ft | 168 kts | 349° |
| 2026-05-06 17:38 | -21.66387 | -47.50868 | 9099 ft | 167 kts | 349° |
| 2026-05-06 17:38 | -21.65265 | -47.51188 | 9097 ft | 166 kts | 348° |
| 2026-05-06 17:38 | -21.64159 | -47.51502 | 9096 ft | 166 kts | 348° |
| 2026-05-06 17:39 | -21.63045 | -47.51818 | 9094 ft | 166 kts | 348° |
| 2026-05-06 17:39 | -21.61929 | -47.52133 | 9095 ft | 166 kts | 348° |
| 2026-05-06 17:39 | -21.60797 | -47.52451 | 9103 ft | 170 kts | 348° |
| 2026-05-06 17:39 | -21.59650 | -47.52776 | 9097 ft | 170 kts | 349° |
| 2026-05-06 17:40 | -21.58513 | -47.53098 | 9106 ft | 170 kts | 349° |
| 2026-05-06 17:40 | -21.57360 | -47.53424 | 9097 ft | 171 kts | 348° |
| 2026-05-06 17:40 | -21.56221 | -47.53750 | 9095 ft | 168 kts | 348° |
| 2026-05-06 17:40 | -21.55083 | -47.54072 | 9101 ft | 170 kts | 349° |
| 2026-05-06 17:41 | -21.53937 | -47.54395 | 9100 ft | 170 kts | 349° |
| 2026-05-06 17:41 | -21.52801 | -47.54717 | 9093 ft | 171 kts | 349° |
| 2026-05-06 17:41 | -21.51657 | -47.55040 | 9094 ft | 169 kts | 348° |
| 2026-05-06 17:41 | -21.50521 | -47.55363 | 9098 ft | 169 kts | 349° |
| 2026-05-06 17:42 | -21.49386 | -47.55683 | 9096 ft | 169 kts | 349° |
| 2026-05-06 17:42 | -21.48253 | -47.56003 | 9092 ft | 168 kts | 349° |
| 2026-05-06 17:42 | -21.47121 | -47.56324 | 9095 ft | 169 kts | 348° |
| 2026-05-06 17:42 | -21.45982 | -47.56645 | 9096 ft | 169 kts | 349° |
| 2026-05-06 17:43 | -21.44846 | -47.56967 | 9094 ft | 169 kts | 348° |
| 2026-05-06 17:43 | -21.43704 | -47.57289 | 9097 ft | 169 kts | 348° |
| 2026-05-06 17:43 | -21.42558 | -47.57613 | 9096 ft | 170 kts | 349° |
| 2026-05-06 17:43 | -21.41411 | -47.57937 | 9098 ft | 170 kts | 349° |
| 2026-05-06 17:44 | -21.40282 | -47.58258 | 9105 ft | 169 kts | 349° |
| 2026-05-06 17:44 | -21.39144 | -47.58576 | 9104 ft | 169 kts | 348° |
| 2026-05-06 17:44 | -21.38003 | -47.58899 | 9105 ft | 170 kts | 348° |
| 2026-05-06 17:44 | -21.36862 | -47.59222 | 9109 ft | 168 kts | 349° |
| 2026-05-06 17:45 | -21.35732 | -47.59541 | 9106 ft | 167 kts | 349° |
| 2026-05-06 17:45 | -21.34607 | -47.59859 | 9108 ft | 167 kts | 349° |
| 2026-05-06 17:45 | -21.33485 | -47.60177 | 9118 ft | 168 kts | 349° |
| 2026-05-06 17:45 | -21.32345 | -47.60497 | 9120 ft | 170 kts | 349° |
| 2026-05-06 17:46 | -21.31208 | -47.60820 | 9123 ft | 168 kts | 348° |
| 2026-05-06 17:46 | -21.30072 | -47.61139 | 9125 ft | 168 kts | 349° |
| 2026-05-06 17:46 | -21.28948 | -47.61451 | 9121 ft | 166 kts | 348° |
| 2026-05-06 17:46 | -21.27844 | -47.61767 | 9122 ft | 163 kts | 349° |
| 2026-05-06 17:47 | -21.26755 | -47.62075 | 9130 ft | 166 kts | 348° |
| 2026-05-06 17:47 | -21.25639 | -47.62388 | 9137 ft | 166 kts | 349° |
| 2026-05-06 17:47 | -21.24517 | -47.62702 | 9136 ft | 166 kts | 349° |
| 2026-05-06 17:47 | -21.23401 | -47.63019 | 9138 ft | 166 kts | 349° |
| 2026-05-06 17:48 | -21.22285 | -47.63334 | 9140 ft | 166 kts | 349° |
| 2026-05-06 17:48 | -21.21171 | -47.63650 | 9140 ft | 165 kts | 349° |
| 2026-05-06 17:48 | -21.20056 | -47.63963 | 9150 ft | 167 kts | 349° |
| 2026-05-06 17:48 | -21.18934 | -47.64275 | 9146 ft | 165 kts | 349° |
| 2026-05-06 17:49 | -21.17828 | -47.64588 | 9148 ft | 164 kts | 349° |
| 2026-05-06 17:49 | -21.16725 | -47.64901 | 9148 ft | 164 kts | 349° |
| 2026-05-06 17:49 | -21.15624 | -47.65210 | 9153 ft | 164 kts | 349° |
| 2026-05-06 17:49 | -21.14512 | -47.65520 | 9154 ft | 166 kts | 349° |
| 2026-05-06 17:50 | -21.13407 | -47.65834 | 9159 ft | 168 kts | 348° |
| 2026-05-06 17:50 | -21.12277 | -47.66150 | 9163 ft | 168 kts | 349° |
| 2026-05-06 17:50 | -21.11146 | -47.66470 | 9150 ft | 167 kts | 348° |
| 2026-05-06 17:50 | -21.10045 | -47.66782 | 9146 ft | 162 kts | 349° |
| 2026-05-06 17:51 | -21.08963 | -47.67087 | 9150 ft | 159 kts | 349° |
| 2026-05-06 17:51 | -21.07888 | -47.67388 | 9150 ft | 161 kts | 349° |
| 2026-05-06 17:51 | -21.06797 | -47.67694 | 9156 ft | 164 kts | 349° |
| 2026-05-06 17:51 | -21.05693 | -47.68002 | 9156 ft | 164 kts | 349° |
| 2026-05-06 17:52 | -21.04584 | -47.68314 | 9157 ft | 166 kts | 349° |
| 2026-05-06 17:52 | -21.03462 | -47.68630 | 9147 ft | 167 kts | 349° |
| 2026-05-06 17:52 | -21.02344 | -47.68942 | 9154 ft | 167 kts | 349° |
| 2026-05-06 17:52 | -21.01217 | -47.69257 | 9146 ft | 166 kts | 349° |
| 2026-05-06 17:53 | -21.00094 | -47.69576 | 9147 ft | 166 kts | 349° |
| 2026-05-06 17:53 | -20.98975 | -47.69894 | 9139 ft | 167 kts | 349° |
| 2026-05-06 17:53 | -20.97851 | -47.70207 | 9143 ft | 167 kts | 349° |
| 2026-05-06 17:53 | -20.96742 | -47.70515 | 9138 ft | 167 kts | 349° |
| 2026-05-06 17:54 | -20.95618 | -47.70832 | 9139 ft | 168 kts | 349° |
| 2026-05-06 17:54 | -20.94482 | -47.71151 | 9131 ft | 170 kts | 349° |
| 2026-05-06 17:54 | -20.93340 | -47.71470 | 9128 ft | 169 kts | 349° |
| 2026-05-06 17:54 | -20.92208 | -47.71789 | 9127 ft | 168 kts | 348° |
| 2026-05-06 17:55 | -20.91075 | -47.72109 | 9121 ft | 168 kts | 349° |
| 2026-05-06 17:55 | -20.89945 | -47.72424 | 9122 ft | 168 kts | 349° |
| 2026-05-06 17:55 | -20.88816 | -47.72741 | 9118 ft | 168 kts | 348° |
| 2026-05-06 17:55 | -20.87682 | -47.73058 | 9113 ft | 168 kts | 349° |
| 2026-05-06 17:56 | -20.86558 | -47.73374 | 9111 ft | 166 kts | 349° |
| 2026-05-06 17:56 | -20.85439 | -47.73687 | 9103 ft | 166 kts | 348° |
| 2026-05-06 17:56 | -20.84318 | -47.74002 | 9099 ft | 167 kts | 349° |
| 2026-05-06 17:56 | -20.83195 | -47.74318 | 9105 ft | 166 kts | 348° |
| 2026-05-06 17:57 | -20.82077 | -47.74633 | 9092 ft | 165 kts | 349° |
| 2026-05-06 17:57 | -20.80964 | -47.74943 | 9097 ft | 165 kts | 349° |
| 2026-05-06 17:57 | -20.79848 | -47.75252 | 9086 ft | 166 kts | 349° |
| 2026-05-06 17:57 | -20.78730 | -47.75566 | 9086 ft | 166 kts | 348° |
| 2026-05-06 17:58 | -20.77607 | -47.75883 | 9084 ft | 167 kts | 348° |
| 2026-05-06 17:58 | -20.76496 | -47.76195 | 9083 ft | 167 kts | 348° |
| 2026-05-06 17:58 | -20.75374 | -47.76509 | 9086 ft | 167 kts | 349° |
| 2026-05-06 17:58 | -20.74250 | -47.76822 | 9087 ft | 167 kts | 349° |
| 2026-05-06 17:59 | -20.73124 | -47.77137 | 9090 ft | 167 kts | 349° |
| 2026-05-06 17:59 | -20.72000 | -47.77450 | 9087 ft | 167 kts | 348° |
| 2026-05-06 17:59 | -20.70872 | -47.77766 | 9092 ft | 168 kts | 349° |
| 2026-05-06 17:59 | -20.69738 | -47.78085 | 9090 ft | 167 kts | 348° |
| 2026-05-06 18:00 | -20.68615 | -47.78399 | 9082 ft | 166 kts | 349° |
| 2026-05-06 18:00 | -20.67491 | -47.78713 | 9088 ft | 168 kts | 349° |
| 2026-05-06 18:00 | -20.66353 | -47.79030 | 9086 ft | 169 kts | 349° |
| 2026-05-06 18:00 | -20.65217 | -47.79346 | 9087 ft | 167 kts | 348° |
| 2026-05-06 18:01 | -20.64086 | -47.79664 | 9085 ft | 168 kts | 349° |
| 2026-05-06 18:01 | -20.62960 | -47.79982 | 9084 ft | 167 kts | 348° |
| 2026-05-06 18:01 | -20.61840 | -47.80294 | 9080 ft | 166 kts | 349° |
| 2026-05-06 18:01 | -20.60726 | -47.80605 | 9083 ft | 166 kts | 348° |
| 2026-05-06 18:02 | -20.59607 | -47.80914 | 9078 ft | 166 kts | 349° |
| 2026-05-06 18:02 | -20.58484 | -47.81230 | 9076 ft | 167 kts | 348° |
| 2026-05-06 18:02 | -20.57359 | -47.81545 | 9076 ft | 167 kts | 349° |
| 2026-05-06 18:02 | -20.56237 | -47.81860 | 9078 ft | 167 kts | 349° |
| 2026-05-06 18:03 | -20.55109 | -47.82172 | 9073 ft | 167 kts | 349° |
| 2026-05-06 18:03 | -20.53985 | -47.82483 | 9071 ft | 167 kts | 348° |
| 2026-05-06 18:03 | -20.52867 | -47.82797 | 9076 ft | 167 kts | 349° |
| 2026-05-06 18:03 | -20.51759 | -47.83109 | 9079 ft | 166 kts | 349° |
| 2026-05-06 18:04 | -20.50632 | -47.83421 | 9080 ft | 168 kts | 349° |
| 2026-05-06 18:04 | -20.49496 | -47.83736 | 9076 ft | 168 kts | 349° |
| 2026-05-06 18:04 | -20.48366 | -47.84053 | 9079 ft | 167 kts | 349° |
| 2026-05-06 18:04 | -20.47243 | -47.84368 | 9077 ft | 167 kts | 349° |
| 2026-05-06 18:05 | -20.46500 | -47.84577 | 9072 ft | 167 kts | 348° |
| 2026-05-06 18:05 | -20.44997 | -47.84992 | 9069 ft | 166 kts | 349° |
| 2026-05-06 18:05 | -20.44260 | -47.85199 | 9071 ft | 165 kts | 348° |
| 2026-05-06 18:05 | -20.43153 | -47.85508 | 9072 ft | 164 kts | 348° |
| 2026-05-06 18:06 | -20.42044 | -47.85816 | 9072 ft | 164 kts | 348° |
| 2026-05-06 18:06 | -20.40940 | -47.86124 | 9066 ft | 164 kts | 349° |
| 2026-05-06 18:06 | -20.39831 | -47.86434 | 9070 ft | 166 kts | 348° |
| 2026-05-06 18:06 | -20.38712 | -47.86746 | 9071 ft | 167 kts | 348° |
| 2026-05-06 18:07 | -20.37587 | -47.87057 | 9072 ft | 166 kts | 348° |
| 2026-05-06 18:07 | -20.36471 | -47.87369 | 9076 ft | 165 kts | 348° |
| 2026-05-06 18:07 | -20.35356 | -47.87680 | 9066 ft | 165 kts | 348° |
| 2026-05-06 18:07 | -20.34243 | -47.87989 | 9072 ft | 166 kts | 348° |
| 2026-05-06 18:08 | -20.33118 | -47.88302 | 9065 ft | 167 kts | 348° |
| 2026-05-06 18:08 | -20.31997 | -47.88613 | 9068 ft | 166 kts | 348° |
| 2026-05-06 18:08 | -20.30891 | -47.88921 | 9076 ft | 167 kts | 348° |
| 2026-05-06 18:08 | -20.29761 | -47.89233 | 9076 ft | 169 kts | 348° |
| 2026-05-06 18:09 | -20.28625 | -47.89552 | 9074 ft | 168 kts | 348° |
| 2026-05-06 18:09 | -20.27490 | -47.89868 | 9071 ft | 168 kts | 348° |
| 2026-05-06 18:09 | -20.26359 | -47.90184 | 9074 ft | 168 kts | 348° |
| 2026-05-06 18:09 | -20.25226 | -47.90498 | 9076 ft | 168 kts | 348° |
| 2026-05-06 18:10 | -20.24086 | -47.90814 | 9067 ft | 169 kts | 348° |
| 2026-05-06 18:10 | -20.22952 | -47.91130 | 9075 ft | 168 kts | 348° |
| 2026-05-06 18:10 | -20.21835 | -47.91442 | 9064 ft | 168 kts | 348° |
| 2026-05-06 18:10 | -20.20709 | -47.91753 | 9067 ft | 167 kts | 348° |
| 2026-05-06 18:11 | -20.19580 | -47.92067 | 9073 ft | 168 kts | 348° |
| 2026-05-06 18:11 | -20.18444 | -47.92382 | 9074 ft | 169 kts | 348° |
| 2026-05-06 18:11 | -20.17305 | -47.92698 | 9071 ft | 169 kts | 348° |
| 2026-05-06 18:11 | -20.16173 | -47.93011 | 9069 ft | 167 kts | 348° |
| 2026-05-06 18:12 | -20.15044 | -47.93324 | 9069 ft | 168 kts | 348° |
| 2026-05-06 18:12 | -20.13917 | -47.93641 | 9072 ft | 167 kts | 348° |
| 2026-05-06 18:12 | -20.12791 | -47.93954 | 9065 ft | 167 kts | 348° |
| 2026-05-06 18:12 | -20.11669 | -47.94264 | 9077 ft | 167 kts | 348° |
| 2026-05-06 18:13 | -20.10543 | -47.94575 | 9089 ft | 168 kts | 348° |
| 2026-05-06 18:13 | -20.09405 | -47.94890 | 9086 ft | 170 kts | 348° |
| 2026-05-06 18:13 | -20.08251 | -47.95210 | 9088 ft | 172 kts | 348° |
| 2026-05-06 18:13 | -20.07094 | -47.95530 | 9089 ft | 171 kts | 348° |
| 2026-05-06 18:14 | -20.05950 | -47.95849 | 9097 ft | 169 kts | 348° |
| 2026-05-06 18:14 | -20.04835 | -47.96161 | 9095 ft | 167 kts | 348° |
| 2026-05-06 18:14 | -20.03717 | -47.96472 | 9099 ft | 165 kts | 348° |
| 2026-05-06 18:14 | -20.02604 | -47.96780 | 9103 ft | 165 kts | 348° |
| 2026-05-06 18:15 | -20.01483 | -47.97089 | 9111 ft | 168 kts | 348° |
| 2026-05-06 18:15 | -20.00350 | -47.97401 | 9116 ft | 168 kts | 348° |
| 2026-05-06 18:15 | -19.99220 | -47.97714 | 9130 ft | 168 kts | 348° |
| 2026-05-06 18:15 | -19.98084 | -47.98031 | 9133 ft | 169 kts | 348° |
| 2026-05-06 18:16 | -19.96945 | -47.98346 | 9140 ft | 169 kts | 349° |
| 2026-05-06 18:16 | -19.95813 | -47.98658 | 9150 ft | 168 kts | 348° |
| 2026-05-06 18:16 | -19.94681 | -47.98973 | 9153 ft | 169 kts | 348° |
| 2026-05-06 18:16 | -19.93538 | -47.99287 | 9162 ft | 170 kts | 348° |
| 2026-05-06 18:17 | -19.92391 | -47.99606 | 9158 ft | 170 kts | 348° |
| 2026-05-06 18:17 | -19.91250 | -47.99924 | 9159 ft | 168 kts | 348° |
| 2026-05-06 18:17 | -19.90136 | -48.00232 | 9161 ft | 167 kts | 348° |
| 2026-05-06 18:17 | -19.89007 | -48.00544 | 9162 ft | 167 kts | 349° |
| 2026-05-06 18:18 | -19.87882 | -48.00855 | 9167 ft | 167 kts | 348° |
| 2026-05-06 18:18 | -19.86756 | -48.01166 | 9179 ft | 166 kts | 349° |
| 2026-05-06 18:18 | -19.85636 | -48.01477 | 9178 ft | 167 kts | 348° |
| 2026-05-06 18:18 | -19.84506 | -48.01789 | 9175 ft | 168 kts | 349° |
| 2026-05-06 18:19 | -19.83381 | -48.02101 | 9177 ft | 167 kts | 348° |
| 2026-05-06 18:19 | -19.82262 | -48.02410 | 9179 ft | 166 kts | 348° |
| 2026-05-06 18:19 | -19.81156 | -48.02712 | 9178 ft | 166 kts | 349° |
| 2026-05-06 18:19 | -19.80039 | -48.03023 | 9179 ft | 166 kts | 349° |
| 2026-05-06 18:20 | -19.78919 | -48.03333 | 9185 ft | 167 kts | 348° |
| 2026-05-06 18:20 | -19.77797 | -48.03644 | 9180 ft | 167 kts | 348° |
| 2026-05-06 18:20 | -19.76674 | -48.03955 | 9180 ft | 167 kts | 349° |
| 2026-05-06 18:20 | -19.75555 | -48.04268 | 9177 ft | 166 kts | 348° |
| 2026-05-06 18:21 | -19.74430 | -48.04574 | 9178 ft | 166 kts | 349° |
| 2026-05-06 18:21 | -19.73308 | -48.04883 | 9179 ft | 167 kts | 348° |
| 2026-05-06 18:21 | -19.72189 | -48.05191 | 9182 ft | 165 kts | 348° |
| 2026-05-06 18:21 | -19.71077 | -48.05501 | 9188 ft | 166 kts | 348° |
| 2026-05-06 18:22 | -19.69975 | -48.05803 | 9179 ft | 165 kts | 349° |
| 2026-05-06 18:22 | -19.68858 | -48.06109 | 9169 ft | 166 kts | 348° |
| 2026-05-06 18:22 | -19.67747 | -48.06419 | 9162 ft | 164 kts | 349° |
| 2026-05-06 18:22 | -19.66640 | -48.06726 | 9158 ft | 164 kts | 349° |
| 2026-05-06 18:23 | -19.65532 | -48.07031 | 9160 ft | 165 kts | 349° |
| 2026-05-06 18:23 | -19.64416 | -48.07337 | 9160 ft | 166 kts | 348° |
| 2026-05-06 18:23 | -19.63298 | -48.07645 | 9149 ft | 166 kts | 348° |
| 2026-05-06 18:23 | -19.62181 | -48.07954 | 9145 ft | 166 kts | 348° |
| 2026-05-06 18:24 | -19.61064 | -48.08262 | 9141 ft | 165 kts | 349° |
| 2026-05-06 18:24 | -19.59950 | -48.08569 | 9142 ft | 166 kts | 348° |
| 2026-05-06 18:24 | -19.58824 | -48.08879 | 9147 ft | 168 kts | 348° |
| 2026-05-06 18:24 | -19.57706 | -48.09187 | 9136 ft | 169 kts | 349° |
| 2026-05-06 18:25 | -19.56572 | -48.09498 | 9140 ft | 168 kts | 349° |
| 2026-05-06 18:25 | -19.55442 | -48.09806 | 9130 ft | 167 kts | 348° |
| 2026-05-06 18:25 | -19.54320 | -48.10119 | 9124 ft | 166 kts | 348° |
| 2026-05-06 18:25 | -19.53194 | -48.10433 | 9122 ft | 168 kts | 348° |
| 2026-05-06 18:26 | -19.52062 | -48.10744 | 9110 ft | 168 kts | 349° |
| 2026-05-06 18:26 | -19.50929 | -48.11054 | 9107 ft | 168 kts | 348° |
| 2026-05-06 18:26 | -19.49800 | -48.11364 | 9105 ft | 168 kts | 348° |
| 2026-05-06 18:26 | -19.48680 | -48.11673 | 9104 ft | 168 kts | 348° |
| 2026-05-06 18:27 | -19.47550 | -48.11984 | 9092 ft | 167 kts | 348° |
| 2026-05-06 18:27 | -19.46428 | -48.12294 | 9098 ft | 167 kts | 348° |
| 2026-05-06 18:27 | -19.45293 | -48.12606 | 9087 ft | 168 kts | 348° |
| 2026-05-06 18:27 | -19.44162 | -48.12916 | 9079 ft | 167 kts | 348° |
| 2026-05-06 18:28 | -19.43029 | -48.13228 | 9080 ft | 168 kts | 349° |
| 2026-05-06 18:28 | -19.41900 | -48.13539 | 9072 ft | 167 kts | 349° |
| 2026-05-06 18:28 | -19.40771 | -48.13850 | 9069 ft | 168 kts | 348° |
| 2026-05-06 18:28 | -19.39645 | -48.14160 | 9084 ft | 167 kts | 348° |
| 2026-05-06 18:29 | -19.38523 | -48.14467 | 9081 ft | 167 kts | 348° |
| 2026-05-06 18:29 | -19.37404 | -48.14775 | 9084 ft | 166 kts | 349° |
| 2026-05-06 18:29 | -19.36287 | -48.15082 | 9074 ft | 166 kts | 349° |
| 2026-05-06 18:29 | -19.35172 | -48.15388 | 9078 ft | 166 kts | 348° |
| 2026-05-06 18:30 | -19.34054 | -48.15696 | 9072 ft | 166 kts | 348° |
| 2026-05-06 18:30 | -19.32954 | -48.15999 | 9082 ft | 165 kts | 348° |
| 2026-05-06 18:30 | -19.31838 | -48.16306 | 8876 ft | 170 kts | 349° |
| 2026-05-06 18:30 | -19.30657 | -48.16621 | 8508 ft | 176 kts | 348° |
| 2026-05-06 18:31 | -19.29477 | -48.16948 | 8256 ft | 174 kts | 349° |
| 2026-05-06 18:31 | -19.28309 | -48.17270 | 7990 ft | 173 kts | 348° |
| 2026-05-06 18:31 | -19.27163 | -48.17584 | 7835 ft | 167 kts | 348° |
| 2026-05-06 18:31 | -19.26048 | -48.17892 | 7714 ft | 165 kts | 348° |
| 2026-05-06 18:32 | -19.24947 | -48.18196 | 7592 ft | 163 kts | 349° |
| 2026-05-06 18:32 | -19.23868 | -48.18493 | 7545 ft | 157 kts | 349° |
| 2026-05-06 18:32 | -19.22825 | -48.18780 | 7514 ft | 152 kts | 348° |
| 2026-05-06 18:32 | -19.21812 | -48.19060 | 7498 ft | 150 kts | 348° |
| 2026-05-06 18:33 | -19.20808 | -48.19333 | 7476 ft | 148 kts | 349° |
| 2026-05-06 18:33 | -19.19815 | -48.19603 | 7447 ft | 146 kts | 348° |
| 2026-05-06 18:33 | -19.18852 | -48.19871 | 7425 ft | 144 kts | 349° |
| 2026-05-06 18:33 | -19.17885 | -48.20136 | 7401 ft | 143 kts | 349° |
| 2026-05-06 18:34 | -19.16921 | -48.20400 | 7389 ft | 144 kts | 349° |
| 2026-05-06 18:34 | -19.15951 | -48.20666 | 7371 ft | 144 kts | 349° |
| 2026-05-06 18:34 | -19.14988 | -48.20930 | 7350 ft | 142 kts | 349° |
| 2026-05-06 18:34 | -19.14032 | -48.21192 | 7331 ft | 142 kts | 348° |
| 2026-05-06 18:35 | -19.13075 | -48.21454 | 7307 ft | 142 kts | 349° |
| 2026-05-06 18:35 | -19.12115 | -48.21717 | 7263 ft | 145 kts | 350° |
| 2026-05-06 18:35 | -19.11161 | -48.22152 | 7096 ft | 156 kts | 326° |
| 2026-05-06 18:35 | -19.10399 | -48.22991 | 6981 ft | 160 kts | 315° |
| 2026-05-06 18:36 | -19.09642 | -48.23866 | 6840 ft | 162 kts | 317° |
| 2026-05-06 18:36 | -19.08864 | -48.24747 | 6693 ft | 165 kts | 316° |
| 2026-05-06 18:36 | -19.08077 | -48.25644 | 6549 ft | 167 kts | 315° |
| 2026-05-06 18:36 | -19.07282 | -48.26555 | 6371 ft | 167 kts | 316° |
| 2026-05-06 18:37 | -19.06494 | -48.27448 | 6246 ft | 166 kts | 315° |
| 2026-05-06 18:37 | -19.05978 | -48.28043 | 6149 ft | 165 kts | 316° |
| 2026-05-06 18:37 | -19.04769 | -48.28980 | 5957 ft | 159 kts | 344° |
| 2026-05-06 18:37 | -19.03699 | -48.29152 | 5824 ft | 158 kts | 5° |
| 2026-05-06 18:38 | -19.02637 | -48.28877 | 5686 ft | 157 kts | 26° |
| 2026-05-06 18:38 | -19.01784 | -48.28210 | 5556 ft | 151 kts | 49° |
| 2026-05-06 18:38 | -19.00924 | -48.27582 | 5418 ft | 154 kts | 18° |
| 2026-05-06 18:38 | -18.99872 | -48.27432 | 5296 ft | 152 kts | 6° |
| 2026-05-06 18:39 | -18.98861 | -48.27159 | 5133 ft | 153 kts | 23° |
| 2026-05-06 18:39 | -18.97858 | -48.26753 | 4941 ft | 153 kts | 24° |
| 2026-05-06 18:39 | -18.96893 | -48.26347 | 4738 ft | 146 kts | 24° |
| 2026-05-06 18:40 | -18.95111 | -48.25566 | 4385 ft | 134 kts | 25° |
| 2026-05-06 18:40 | -18.94262 | -48.25194 | 4214 ft | 131 kts | 25° |
| 2026-05-06 18:40 | -18.93428 | -48.24828 | 4046 ft | 128 kts | 25° |
| 2026-05-06 18:40 | -18.92600 | -48.24457 | 3880 ft | 132 kts | 24° |
| 2026-05-06 18:41 | -18.91762 | -48.24086 | 3706 ft | 132 kts | 25° |
| 2026-05-06 18:41 | -18.90907 | -48.23710 | 3521 ft | 134 kts | 25° |
| 2026-05-06 18:41 | -18.90037 | -48.23334 | 3307 ft | 134 kts | 29° |
| 2026-05-06 18:41 | -18.89198 | -48.22952 | 3138 ft | 127 kts | 24° |
| 2026-05-06 18:42 | -18.88499 | -48.22642 | 3100 ft | 74 kts | 20° |
| 2026-05-06 18:42 | -18.88260 | -48.22540 | 3098 ft | 7 kts | 37° |
| 2026-05-06 18:42 | -18.88298 | -48.22569 | 3099 ft | 16 kts | 202° |
| 2026-05-06 18:42 | -18.88396 | -48.22610 | 3100 ft | 14 kts | 198° |
| 2026-05-06 18:43 | -18.88487 | -48.22645 | 3100 ft | 13 kts | 202° |
| 2026-05-06 18:43 | -18.88570 | -48.22688 | 3100 ft | 13 kts | 205° |
| 2026-05-06 18:43 | -18.88652 | -48.22725 | 3100 ft | 13 kts | 202° |
| 2026-05-06 18:43 | -18.88733 | -48.22758 | 3100 ft | 12 kts | 202° |
| 2026-05-06 18:44 | -18.88783 | -48.22831 | 3100 ft | 15 kts | 249° |
| 2026-05-06 18:44 | -18.88806 | -48.22906 | 3099 ft | 4 kts | 314° |
| 2026-05-06 18:44 | -18.88784 | -48.22953 | 3099 ft | 10 kts | 282° |
| 2026-05-06 18:44 | -18.88820 | -48.22979 | 3099 ft | 3 kts | 256° |
| 2026-05-06 18:45 | -18.88818 | -48.22982 | 3099 ft | 0 kts | 334° |